• Join FlightAware (Why Join?)
  • Login
  • US Flag 
09:33PM EDT


 

Airport Tracker/Info


-or-


 

Live Flight TrackerFlight Track Log ✈ TAM3210 ✈ 14-Oct-2013 ✈ SBSP / CGH - SBCF / CNF

Flight Track Log - Related Links

Times and Time Zones

All times are in EDT time to prevent confusion due to time zone crossing. See the TAM3210 flight status page for this flight to view local times or setup timezone preferences in your user account.

Time Position Orientation Groundspeed Altitude Reporting Facility
EDT Latitude Longitude Course Direction KTS MPH feet Rate Location/Type
06:21AM -23.6160 -46.6640 327° Northwest 160 184 2,900  Level FlightAware
06:22AM -23.5940 -46.6780 330° Northwest 183 211 3,700 1,500 Climbing FlightAware
06:22AM -23.5900 -46.6780 360° North 185 213 3,800 1,800 Climbing FlightAware
06:22AM -23.5730 -46.6670 31° Northeast 201 231 4,600 1,500 Climbing FlightAware
06:23AM -23.5700 -46.6560 73° East 214 246 4,700 1,140 Climbing FlightAware
06:23AM -23.5810 -46.6280 113° Southeast 242 278 5,300 1,380 Climbing FlightAware
06:23AM -23.5940 -46.6080 125° Southeast 234 269 5,800 1,080 Climbing FlightAware
06:24AM -23.6020 -46.5970 128° Southeast 230 265 5,900 180 Climbing FlightAware
06:24AM -23.6110 -46.5800 120° Southeast 236 272 5,900  Level FlightAware
06:24AM -23.6110 -46.5740 90° East 240 276 5,900 900 Level FlightAware
06:24AM -23.6080 -46.5560 80° East 260 299 6,300 1,200 Climbing FlightAware
06:25AM -23.6000 -46.5240 75° East 283 326 6,700 1,800 Climbing FlightAware
06:25AM -23.5930 -46.4950 75° East 293 337 7,500 2,040 Climbing FlightAware
06:25AM -23.5860 -46.4660 75° East 304 350 8,100 1,500 Climbing FlightAware
06:26AM -23.5790 -46.4350 76° East 307 353 8,600 1,620 Climbing FlightAware
06:26AM -23.5690 -46.4060 69° East 307 353 9,200 2,160 Climbing FlightAware
06:26AM -23.5600 -46.3940 51° Northeast 306 352 9,700 2,280 Climbing FlightAware
06:27AM -23.5200 -46.3490 46° Northeast 321 369 11,100 2,460 Climbing FlightAware
06:27AM -23.5130 -46.3420 43° Northeast 319 367 11,700 3,120 Climbing FlightAware
06:27AM -23.4870 -46.3280 26° Northeast 316 364 12,400 1,920 Climbing FlightAware
06:28AM -23.4430 -46.3110 20° North 338 389 13,300 1,260 Climbing FlightAware
06:28AM -23.3850 -46.2890 19° North 370 426 13,900 1,320 Climbing FlightAware
06:29AM -23.3280 -46.2660 20° North 385 443 14,900 2,040 Climbing FlightAware
06:30AM -23.2670 -46.2420 20° North 388 447 16,300 2,040 Climbing FlightAware
06:30AM -23.2060 -46.2170 21° North 400 460 17,300 1,860 Climbing FlightAware
06:31AM -23.1460 -46.1930 20° North 403 464 18,500 1,860 Climbing FlightAware
06:31AM -23.0840 -46.1660 22° Northeast 412 474 19,500 1,680 Climbing FlightAware
06:32AM -23.0280 -46.1260 33° Northeast 416 479 20,500 1,620 Climbing FlightAware
06:32AM -22.9770 -46.0900 33° Northeast 422 486 21,300 1,380 Climbing FlightAware
06:33AM -22.9020 -46.0400 32° Northeast 434 499 22,300 1,440 Climbing FlightAware
06:34AM -22.8450 -46.0010 32° Northeast 438 504 23,300 1,680 Climbing FlightAware
06:34AM -22.7800 -45.9610 30° Northeast 437 503 24,300 1,500 Climbing FlightAware
06:35AM -22.7190 -45.9340 22° Northeast 445 512 25,100 1,500 Climbing FlightAware
06:36AM -22.6430 -45.9010 22° Northeast 445 512 26,100 1,680 Climbing FlightAware
06:36AM -22.5860 -45.8750 23° Northeast 444 511 27,000 1,380 Climbing FlightAware
06:37AM -22.5080 -45.8390 23° Northeast 454 522 27,800 840 Climbing FlightAware
06:37AM -22.4370 -45.8060 23° Northeast 469 540 28,100 720 Climbing FlightAware
06:38AM -22.3820 -45.7820 22° Northeast 475 547 28,600 1,200 Climbing FlightAware
06:39AM -22.2850 -45.7310 26° Northeast 480 552 29,600 1,200 Climbing FlightAware
06:39AM -22.1970 -45.6750 31° Northeast 484 557 30,500 1,320 Climbing FlightAware
06:40AM -22.1410 -45.6380 31° Northeast 481 554 31,300 1,560 Climbing FlightAware
06:40AM -22.0750 -45.5960 31° Northeast 476 548 32,200 1,260 Climbing FlightAware
06:41AM -22.0120 -45.5560 30° Northeast 477 549 32,800 660 Climbing FlightAware
06:42AM -21.9400 -45.5100 31° Northeast 481 554 33,000 120 Climbing FlightAware
06:42AM -21.8710 -45.4650 31° Northeast 497 572 33,000  Level FlightAware
06:43AM -21.8080 -45.4250 31° Northeast 501 577 33,000  Level FlightAware
06:43AM -21.7320 -45.3770 30° Northeast 502 578 33,000  Level FlightAware
06:44AM -21.6690 -45.3370 31° Northeast 502 578 33,000  Level FlightAware
06:44AM -21.5940 -45.2890 31° Northeast 501 577 33,000  Level FlightAware
06:45AM -21.5240 -45.2450 30° Northeast 500 575 33,000  Level FlightAware
06:46AM -21.4540 -45.2010 30° Northeast 499 574 33,000  Level FlightAware
06:46AM -21.3740 -45.1490 31° Northeast 497 572 33,000  Level FlightAware
06:47AM -21.3050 -45.1060 30° Northeast 495 570 33,000  Level FlightAware
06:47AM -21.2370 -45.0630 31° Northeast 494 568 33,000 -480 Level FlightAware
06:48AM -21.1770 -45.0250 31° Northeast 488 562 32,500 -1,500 Descending FlightAware
06:49AM -21.1090 -44.9820 31° Northeast 478 550 31,400 -1,860 Descending FlightAware
06:49AM -21.0430 -44.9400 31° Northeast 467 537 30,300 -1,800 Descending FlightAware
06:50AM -20.9750 -44.8980 30° Northeast 455 524 29,300 -1,800 Descending FlightAware
06:50AM -20.9100 -44.8570 31° Northeast 449 517 28,200 -1,980 Descending FlightAware
06:51AM -20.8470 -44.8170 31° Northeast 444 511 27,000 -2,040 Descending FlightAware
06:52AM -20.7690 -44.7680 30° Northeast 437 503 25,500 -2,040 Descending FlightAware
06:52AM -20.7170 -44.7350 31° Northeast 432 497 24,500 -1,980 Descending FlightAware
06:53AM -20.6490 -44.6920 31° Northeast 424 488 23,200 -1,860 Descending FlightAware
06:53AM -20.5990 -44.6610 30° Northeast 417 480 22,300 -1,860 Descending FlightAware
06:54AM -20.5410 -44.6250 30° Northeast 409 471 21,200 -1,920 Descending FlightAware
06:55AM -20.4760 -44.5840 31° Northeast 400 460 20,000 -1,800 Descending FlightAware
06:55AM -20.4280 -44.5540 30° Northeast 394 453 19,100 -1,800 Descending FlightAware
06:56AM -20.3740 -44.5200 31° Northeast 389 448 18,100 -1,740 Descending FlightAware
06:56AM -20.3120 -44.4820 30° Northeast 382 440 17,000 -1,680 Descending FlightAware
06:57AM -20.2640 -44.4590 24° Northeast 375 432 16,100 -1,680 Descending FlightAware
06:57AM -20.2050 -44.4350 21° North 369 425 15,100 -1,620 Descending FlightAware
06:58AM -20.1480 -44.4110 22° Northeast 362 417 14,200 -1,620 Descending FlightAware
06:59AM -20.0950 -44.3880 22° Northeast 355 409 13,300 -1,140 Descending FlightAware
06:59AM -20.0430 -44.3660 22° Northeast 328 377 12,900 -960 Descending FlightAware
07:00AM -19.9930 -44.3450 22° Northeast 319 367 12,200 -1,320 Descending FlightAware
07:00AM -19.9460 -44.3250 22° Northeast 312 359 11,400 -1,440 Descending FlightAware
07:01AM -19.9050 -44.3080 21° North 306 352 10,700 -1,380 Descending FlightAware
07:02AM -19.8590 -44.2890 21° North 301 346 9,900 -1,320 Descending FlightAware
07:02AM -19.8310 -44.2770 22° Northeast 300 345 9,500 -1,080 Descending FlightAware
07:02AM -19.7930 -44.2610 22° Northeast 300 345 9,000 -600 Descending FlightAware
07:03AM -19.7660 -44.2500 21° North 279 321 9,000  Level FlightAware
07:03AM -19.7360 -44.2370 22° Northeast 269 310 9,000  Level FlightAware
07:03AM -19.7240 -44.2350 North 269 310 9,000  Level FlightAware
07:04AM -19.6920 -44.2360 358° North 264 304 9,000 -540 Level FlightAware
07:04AM -19.6620 -44.2380 356° North 261 300 8,600 -960 Descending FlightAware
07:04AM -19.6380 -44.2390 358° North 256 295 8,300 -1,020 Descending FlightAware
07:05AM -19.6130 -44.2400 358° North 251 289 7,900 -1,320 Descending FlightAware
07:05AM -19.5900 -44.2420 355° North 254 292 7,400 -1,200 Descending FlightAware
07:05AM -19.5670 -44.2430 358° North 249 287 7,100 -900 Descending FlightAware
07:06AM -19.5490 -44.2440 357° North 244 281 6,900 -1,080 Descending FlightAware
07:06AM -19.5260 -44.2440 360° North 239 275 6,500 -1,020 Descending FlightAware
07:07AM -19.4840 -44.2460 357° North 231 266 5,900 -720 Descending FlightAware
07:07AM -19.4950 -44.2450 175° South 230 265 5,700 -360 Descending FlightAware
07:07AM -19.4490 -44.2370 North 229 264 5,700 -720 Level FlightAware
07:08AM -19.4420 -44.2260 56° Northeast 226 260 5,500 -1,140 Descending FlightAware
07:08AM -19.4400 -44.2200 71° East 223 257 5,400 -1,080 Descending FlightAware
07:08AM -19.4430 -44.1950 97° East 221 254 5,000 -900 Descending FlightAware
07:08AM -19.4460 -44.1740 99° East 217 250 4,800 -360 Descending FlightAware
07:09AM -19.4500 -44.1540 102° East 219 252 4,800  Level FlightAware
07:09AM -19.4540 -44.1380 105° East 221 254 4,800  Level FlightAware
07:09AM -19.4610 -44.1290 130° Southeast 225 259 4,800  Level FlightAware
07:09AM -19.4760 -44.1140 137° Southeast 226 260 4,800  Level FlightAware
07:10AM -19.4920 -44.1000 140° Southeast 224 258 4,800  Level FlightAware
07:10AM -19.5070 -44.0850 137° Southeast 226 260 4,800 -180 Level FlightAware
07:10AM -19.5230 -44.0710 140° Southeast 221 254 4,700  Descending FlightAware
07:11AM -19.5430 -44.0520 138° Southeast 216 249 4,800 -840 Climbing FlightAware
07:11AM -19.5580 -44.0390 141° Southeast 190 219 4,100 -1,800 Descending FlightAware
07:11AM -19.5650 -44.0320 137° Southeast 176 203 3,900 -780 Descending FlightAware
07:12AM -19.5800 -44.0190 141° Southeast 159 183 3,600 -840 Descending FlightAware
07:12AM -19.5910 -44.0090 139° Southeast 146 168 3,300 -900 Descending FlightAware
07:13AM -19.6060 -43.9940 137° Southeast 143 165 2,900 -720 Descending FlightAware
07:13AM -19.6130 -43.9880 141° Southeast 143 165 2,800 -420 Descending FlightAware
07:13AM -19.6280 -43.9740 139° Southeast 135 155 -5,640 Descending FlightAware